sensor_id;sensor_type;location;lat;lon;timestamp;P1;durP1;ratioP1;P2;durP2;ratioP2
45198;SDS011;30941;46.422;18.772;2023-11-21T00:01:53;35.95;;;21.95;;
45198;SDS011;30941;46.422;18.772;2023-11-21T00:04:19;34.80;;;19.98;;
45198;SDS011;30941;46.422;18.772;2023-11-21T00:06:44;35.35;;;20.77;;
45198;SDS011;30941;46.422;18.772;2023-11-21T00:09:12;34.38;;;21.45;;
45198;SDS011;30941;46.422;18.772;2023-11-21T00:11:38;43.40;;;23.48;;
45198;SDS011;30941;46.422;18.772;2023-11-21T00:14:03;31.63;;;21.35;;
45198;SDS011;30941;46.422;18.772;2023-11-21T00:16:29;32.65;;;20.17;;
45198;SDS011;30941;46.422;18.772;2023-11-21T00:18:54;33.90;;;22.27;;
45198;SDS011;30941;46.422;18.772;2023-11-21T00:21:20;34.33;;;21.08;;
45198;SDS011;30941;46.422;18.772;2023-11-21T00:23:45;33.63;;;22.13;;
45198;SDS011;30941;46.422;18.772;2023-11-21T00:26:10;32.20;;;20.02;;
45198;SDS011;30941;46.422;18.772;2023-11-21T00:28:35;32.38;;;21.63;;
45198;SDS011;30941;46.422;18.772;2023-11-21T00:31:01;32.90;;;21.08;;
45198;SDS011;30941;46.422;18.772;2023-11-21T00:33:26;35.10;;;21.90;;
45198;SDS011;30941;46.422;18.772;2023-11-21T00:35:52;32.38;;;20.35;;
45198;SDS011;30941;46.422;18.772;2023-11-21T00:38:17;35.42;;;21.95;;
45198;SDS011;30941;46.422;18.772;2023-11-21T00:40:45;44.13;;;23.70;;
45198;SDS011;30941;46.422;18.772;2023-11-21T00:43:10;42.00;;;23.95;;
45198;SDS011;30941;46.422;18.772;2023-11-21T00:45:36;39.10;;;22.73;;
45198;SDS011;30941;46.422;18.772;2023-11-21T00:48:01;41.70;;;24.95;;
45198;SDS011;30941;46.422;18.772;2023-11-21T00:50:29;36.25;;;23.42;;
45198;SDS011;30941;46.422;18.772;2023-11-21T00:52:54;37.03;;;22.65;;
45198;SDS011;30941;46.422;18.772;2023-11-21T00:55:20;37.95;;;21.73;;
45198;SDS011;30941;46.422;18.772;2023-11-21T00:57:46;40.70;;;23.90;;
45198;SDS011;30941;46.422;18.772;2023-11-21T01:00:11;43.22;;;23.63;;
45198;SDS011;30941;46.422;18.772;2023-11-21T01:02:41;45.25;;;24.95;;
45198;SDS011;30941;46.422;18.772;2023-11-21T01:05:08;56.40;;;29.65;;
45198;SDS011;30941;46.422;18.772;2023-11-21T01:07:34;56.50;;;27.80;;
45198;SDS011;30941;46.422;18.772;2023-11-21T01:09:59;34.30;;;22.38;;
45198;SDS011;30941;46.422;18.772;2023-11-21T01:12:24;33.15;;;20.67;;
45198;SDS011;30941;46.422;18.772;2023-11-21T01:14:50;28.98;;;20.42;;
45198;SDS011;30941;46.422;18.772;2023-11-21T01:17:16;30.55;;;19.38;;
45198;SDS011;30941;46.422;18.772;2023-11-21T01:19:41;31.67;;;19.17;;
45198;SDS011;30941;46.422;18.772;2023-11-21T01:22:07;29.27;;;18.55;;
45198;SDS011;30941;46.422;18.772;2023-11-21T01:24:33;31.88;;;19.17;;
45198;SDS011;30941;46.422;18.772;2023-11-21T01:26:59;28.33;;;17.80;;
45198;SDS011;30941;46.422;18.772;2023-11-21T01:29:24;26.67;;;17.05;;
45198;SDS011;30941;46.422;18.772;2023-11-21T01:31:49;29.77;;;18.77;;
45198;SDS011;30941;46.422;18.772;2023-11-21T01:34:15;33.60;;;19.10;;
45198;SDS011;30941;46.422;18.772;2023-11-21T01:36:40;34.80;;;19.02;;
45198;SDS011;30941;46.422;18.772;2023-11-21T01:39:05;34.10;;;19.98;;
45198;SDS011;30941;46.422;18.772;2023-11-21T01:41:33;40.05;;;22.83;;
45198;SDS011;30941;46.422;18.772;2023-11-21T01:44:00;35.35;;;22.45;;
45198;SDS011;30941;46.422;18.772;2023-11-21T01:46:25;38.92;;;23.83;;
45198;SDS011;30941;46.422;18.772;2023-11-21T01:48:51;35.83;;;22.58;;
45198;SDS011;30941;46.422;18.772;2023-11-21T01:51:18;33.50;;;22.50;;
45198;SDS011;30941;46.422;18.772;2023-11-21T01:53:44;34.42;;;21.92;;
45198;SDS011;30941;46.422;18.772;2023-11-21T01:56:11;36.50;;;22.73;;
45198;SDS011;30941;46.422;18.772;2023-11-21T01:58:37;34.33;;;22.05;;
45198;SDS011;30941;46.422;18.772;2023-11-21T02:01:03;29.90;;;19.55;;
45198;SDS011;30941;46.422;18.772;2023-11-21T02:03:28;29.88;;;19.25;;
45198;SDS011;30941;46.422;18.772;2023-11-21T02:05:53;35.50;;;21.42;;
45198;SDS011;30941;46.422;18.772;2023-11-21T02:08:19;34.00;;;19.90;;
45198;SDS011;30941;46.422;18.772;2023-11-21T02:10:45;31.30;;;19.92;;
45198;SDS011;30941;46.422;18.772;2023-11-21T02:13:10;33.50;;;21.42;;
45198;SDS011;30941;46.422;18.772;2023-11-21T02:15:36;39.88;;;20.27;;
45198;SDS011;30941;46.422;18.772;2023-11-21T02:18:03;31.10;;;20.77;;
45198;SDS011;30941;46.422;18.772;2023-11-21T02:20:31;57.53;;;31.67;;
45198;SDS011;30941;46.422;18.772;2023-11-21T02:22:59;38.70;;;25.02;;
45198;SDS011;30941;46.422;18.772;2023-11-21T02:25:25;37.70;;;23.92;;
45198;SDS011;30941;46.422;18.772;2023-11-21T02:27:59;52.20;;;27.80;;
45198;SDS011;30941;46.422;18.772;2023-11-21T02:30:26;47.05;;;26.23;;
45198;SDS011;30941;46.422;18.772;2023-11-21T02:32:53;42.22;;;24.30;;
45198;SDS011;30941;46.422;18.772;2023-11-21T02:35:18;39.53;;;24.45;;
45198;SDS011;30941;46.422;18.772;2023-11-21T02:37:46;42.78;;;24.83;;
45198;SDS011;30941;46.422;18.772;2023-11-21T02:40:12;38.25;;;25.00;;
45198;SDS011;30941;46.422;18.772;2023-11-21T02:42:37;41.58;;;23.98;;
45198;SDS011;30941;46.422;18.772;2023-11-21T02:45:06;39.58;;;24.92;;
45198;SDS011;30941;46.422;18.772;2023-11-21T02:47:32;44.55;;;23.98;;
45198;SDS011;30941;46.422;18.772;2023-11-21T02:49:58;42.03;;;22.80;;
45198;SDS011;30941;46.422;18.772;2023-11-21T02:52:24;38.47;;;21.80;;
45198;SDS011;30941;46.422;18.772;2023-11-21T02:54:50;30.35;;;19.70;;
45198;SDS011;30941;46.422;18.772;2023-11-21T02:57:16;31.02;;;18.73;;
45198;SDS011;30941;46.422;18.772;2023-11-21T02:59:41;32.55;;;18.90;;
45198;SDS011;30941;46.422;18.772;2023-11-21T03:02:07;33.53;;;18.33;;
45198;SDS011;30941;46.422;18.772;2023-11-21T03:04:33;30.55;;;19.55;;
45198;SDS011;30941;46.422;18.772;2023-11-21T03:06:59;32.40;;;20.25;;
45198;SDS011;30941;46.422;18.772;2023-11-21T03:09:24;28.83;;;17.52;;
45198;SDS011;30941;46.422;18.772;2023-11-21T03:11:49;30.13;;;19.40;;
45198;SDS011;30941;46.422;18.772;2023-11-21T03:14:15;32.65;;;19.80;;
45198;SDS011;30941;46.422;18.772;2023-11-21T03:16:40;30.70;;;18.58;;
45198;SDS011;30941;46.422;18.772;2023-11-21T03:19:06;33.60;;;19.38;;
45198;SDS011;30941;46.422;18.772;2023-11-21T03:21:33;28.95;;;18.00;;
45198;SDS011;30941;46.422;18.772;2023-11-21T03:23:58;32.05;;;18.42;;
45198;SDS011;30941;46.422;18.772;2023-11-21T03:26:25;32.55;;;18.65;;
45198;SDS011;30941;46.422;18.772;2023-11-21T03:28:50;30.17;;;18.98;;
45198;SDS011;30941;46.422;18.772;2023-11-21T03:31:18;31.67;;;19.35;;
45198;SDS011;30941;46.422;18.772;2023-11-21T03:33:44;30.95;;;18.92;;
45198;SDS011;30941;46.422;18.772;2023-11-21T03:36:10;29.33;;;18.90;;
45198;SDS011;30941;46.422;18.772;2023-11-21T03:38:36;29.95;;;18.63;;
45198;SDS011;30941;46.422;18.772;2023-11-21T03:41:02;32.55;;;19.92;;
45198;SDS011;30941;46.422;18.772;2023-11-21T03:43:27;32.83;;;18.73;;
45198;SDS011;30941;46.422;18.772;2023-11-21T03:45:52;33.92;;;21.02;;
45198;SDS011;30941;46.422;18.772;2023-11-21T03:48:18;34.03;;;20.88;;
45198;SDS011;30941;46.422;18.772;2023-11-21T03:50:43;35.78;;;22.67;;
45198;SDS011;30941;46.422;18.772;2023-11-21T03:53:08;36.90;;;21.48;;
45198;SDS011;30941;46.422;18.772;2023-11-21T03:55:34;37.47;;;21.73;;
45198;SDS011;30941;46.422;18.772;2023-11-21T03:57:59;32.38;;;21.90;;
45198;SDS011;30941;46.422;18.772;2023-11-21T04:00:25;37.92;;;22.17;;
45198;SDS011;30941;46.422;18.772;2023-11-21T04:02:53;43.45;;;23.38;;
45198;SDS011;30941;46.422;18.772;2023-11-21T04:05:19;40.97;;;24.52;;
45198;SDS011;30941;46.422;18.772;2023-11-21T04:07:45;42.97;;;25.25;;
45198;SDS011;30941;46.422;18.772;2023-11-21T04:10:10;39.08;;;23.20;;
45198;SDS011;30941;46.422;18.772;2023-11-21T04:12:38;40.08;;;23.40;;
45198;SDS011;30941;46.422;18.772;2023-11-21T04:15:03;33.67;;;21.33;;
45198;SDS011;30941;46.422;18.772;2023-11-21T04:17:29;32.58;;;20.55;;
45198;SDS011;30941;46.422;18.772;2023-11-21T04:19:54;30.85;;;19.25;;
45198;SDS011;30941;46.422;18.772;2023-11-21T04:22:19;23.67;;;16.65;;
45198;SDS011;30941;46.422;18.772;2023-11-21T04:24:45;24.90;;;16.48;;
45198;SDS011;30941;46.422;18.772;2023-11-21T04:27:10;24.30;;;15.30;;
45198;SDS011;30941;46.422;18.772;2023-11-21T04:29:35;26.10;;;17.35;;
45198;SDS011;30941;46.422;18.772;2023-11-21T04:32:01;24.13;;;16.38;;
45198;SDS011;30941;46.422;18.772;2023-11-21T04:34:27;25.23;;;16.40;;
45198;SDS011;30941;46.422;18.772;2023-11-21T04:36:55;24.58;;;16.70;;
45198;SDS011;30941;46.422;18.772;2023-11-21T04:39:21;26.17;;;17.15;;
45198;SDS011;30941;46.422;18.772;2023-11-21T04:41:46;26.02;;;17.25;;
45198;SDS011;30941;46.422;18.772;2023-11-21T04:44:12;26.55;;;16.65;;
45198;SDS011;30941;46.422;18.772;2023-11-21T04:46:37;23.20;;;16.48;;
45198;SDS011;30941;46.422;18.772;2023-11-21T04:49:02;24.48;;;15.75;;
45198;SDS011;30941;46.422;18.772;2023-11-21T04:51:28;23.13;;;14.02;;
45198;SDS011;30941;46.422;18.772;2023-11-21T04:53:53;24.88;;;16.02;;
45198;SDS011;30941;46.422;18.772;2023-11-21T04:56:18;22.27;;;15.18;;
45198;SDS011;30941;46.422;18.772;2023-11-21T04:58:44;21.90;;;14.75;;
45198;SDS011;30941;46.422;18.772;2023-11-21T05:01:09;22.20;;;14.52;;
45198;SDS011;30941;46.422;18.772;2023-11-21T05:03:35;25.35;;;16.02;;
45198;SDS011;30941;46.422;18.772;2023-11-21T05:06:00;19.80;;;14.48;;
45198;SDS011;30941;46.422;18.772;2023-11-21T05:08:25;22.17;;;15.25;;
45198;SDS011;30941;46.422;18.772;2023-11-21T05:10:51;20.50;;;14.85;;
45198;SDS011;30941;46.422;18.772;2023-11-21T05:13:17;19.23;;;13.93;;
45198;SDS011;30941;46.422;18.772;2023-11-21T05:15:43;26.30;;;16.67;;
45198;SDS011;30941;46.422;18.772;2023-11-21T05:18:09;24.30;;;15.88;;
45198;SDS011;30941;46.422;18.772;2023-11-21T05:20:35;25.35;;;17.05;;
45198;SDS011;30941;46.422;18.772;2023-11-21T05:23:00;25.15;;;17.52;;
45198;SDS011;30941;46.422;18.772;2023-11-21T05:25:26;20.83;;;15.13;;
45198;SDS011;30941;46.422;18.772;2023-11-21T05:27:51;21.85;;;14.90;;
45198;SDS011;30941;46.422;18.772;2023-11-21T05:30:18;27.80;;;15.80;;
45198;SDS011;30941;46.422;18.772;2023-11-21T05:32:43;22.67;;;15.35;;
45198;SDS011;30941;46.422;18.772;2023-11-21T05:35:09;21.98;;;14.73;;
45198;SDS011;30941;46.422;18.772;2023-11-21T05:37:37;22.45;;;14.68;;
45198;SDS011;30941;46.422;18.772;2023-11-21T05:40:04;28.27;;;15.57;;
45198;SDS011;30941;46.422;18.772;2023-11-21T05:42:31;25.35;;;15.63;;
45198;SDS011;30941;46.422;18.772;2023-11-21T05:44:57;24.48;;;15.85;;
45198;SDS011;30941;46.422;18.772;2023-11-21T05:47:24;18.42;;;13.95;;
45198;SDS011;30941;46.422;18.772;2023-11-21T05:49:51;19.85;;;13.63;;
45198;SDS011;30941;46.422;18.772;2023-11-21T05:52:17;20.55;;;13.90;;
45198;SDS011;30941;46.422;18.772;2023-11-21T05:54:42;19.83;;;13.88;;
45198;SDS011;30941;46.422;18.772;2023-11-21T05:57:08;20.83;;;13.07;;
45198;SDS011;30941;46.422;18.772;2023-11-21T05:59:34;18.48;;;12.75;;
45198;SDS011;30941;46.422;18.772;2023-11-21T06:01:59;20.58;;;13.55;;
45198;SDS011;30941;46.422;18.772;2023-11-21T06:04:24;21.23;;;13.25;;
45198;SDS011;30941;46.422;18.772;2023-11-21T06:06:51;18.90;;;12.57;;
45198;SDS011;30941;46.422;18.772;2023-11-21T06:09:17;21.33;;;14.05;;
45198;SDS011;30941;46.422;18.772;2023-11-21T06:11:42;21.63;;;13.63;;
45198;SDS011;30941;46.422;18.772;2023-11-21T06:14:08;21.00;;;13.25;;
45198;SDS011;30941;46.422;18.772;2023-11-21T06:16:34;18.08;;;12.73;;
45198;SDS011;30941;46.422;18.772;2023-11-21T06:19:00;21.77;;;13.43;;
45198;SDS011;30941;46.422;18.772;2023-11-21T06:21:26;26.85;;;16.00;;
45198;SDS011;30941;46.422;18.772;2023-11-21T06:23:51;25.02;;;15.45;;
45198;SDS011;30941;46.422;18.772;2023-11-21T06:26:18;21.10;;;14.00;;
45198;SDS011;30941;46.422;18.772;2023-11-21T06:28:43;19.83;;;12.43;;
45198;SDS011;30941;46.422;18.772;2023-11-21T06:31:09;21.15;;;14.88;;
45198;SDS011;30941;46.422;18.772;2023-11-21T06:33:35;23.48;;;14.93;;
45198;SDS011;30941;46.422;18.772;2023-11-21T06:36:01;27.08;;;18.58;;
45198;SDS011;30941;46.422;18.772;2023-11-21T06:38:27;25.73;;;17.50;;
45198;SDS011;30941;46.422;18.772;2023-11-21T06:40:54;23.92;;;16.77;;
45198;SDS011;30941;46.422;18.772;2023-11-21T06:43:20;23.13;;;14.70;;
45198;SDS011;30941;46.422;18.772;2023-11-21T06:45:47;23.70;;;14.95;;
45198;SDS011;30941;46.422;18.772;2023-11-21T06:48:12;29.40;;;17.23;;
45198;SDS011;30941;46.422;18.772;2023-11-21T06:50:38;28.75;;;17.08;;
45198;SDS011;30941;46.422;18.772;2023-11-21T06:53:03;24.80;;;15.20;;
45198;SDS011;30941;46.422;18.772;2023-11-21T06:55:31;22.77;;;13.65;;
45198;SDS011;30941;46.422;18.772;2023-11-21T06:57:57;23.23;;;14.82;;
45198;SDS011;30941;46.422;18.772;2023-11-21T07:00:23;22.08;;;14.13;;
45198;SDS011;30941;46.422;18.772;2023-11-21T07:02:48;23.63;;;15.32;;
45198;SDS011;30941;46.422;18.772;2023-11-21T07:05:14;22.40;;;15.48;;
45198;SDS011;30941;46.422;18.772;2023-11-21T07:07:40;23.45;;;15.30;;
45198;SDS011;30941;46.422;18.772;2023-11-21T07:10:05;20.65;;;14.55;;
45198;SDS011;30941;46.422;18.772;2023-11-21T07:12:33;22.42;;;15.10;;
45198;SDS011;30941;46.422;18.772;2023-11-21T07:14:59;31.05;;;18.40;;
45198;SDS011;30941;46.422;18.772;2023-11-21T07:17:24;23.45;;;16.80;;
45198;SDS011;30941;46.422;18.772;2023-11-21T07:19:49;25.42;;;17.60;;
45198;SDS011;30941;46.422;18.772;2023-11-21T07:22:15;25.90;;;17.15;;
45198;SDS011;30941;46.422;18.772;2023-11-21T07:24:47;22.02;;;16.52;;
45198;SDS011;30941;46.422;18.772;2023-11-21T07:27:14;25.98;;;16.58;;
45198;SDS011;30941;46.422;18.772;2023-11-21T07:29:39;27.00;;;17.58;;
45198;SDS011;30941;46.422;18.772;2023-11-21T07:32:05;25.27;;;16.50;;
45198;SDS011;30941;46.422;18.772;2023-11-21T07:34:31;28.08;;;16.23;;
45198;SDS011;30941;46.422;18.772;2023-11-21T07:36:56;28.50;;;16.58;;
45198;SDS011;30941;46.422;18.772;2023-11-21T07:39:21;21.27;;;13.85;;
45198;SDS011;30941;46.422;18.772;2023-11-21T07:41:47;22.08;;;12.05;;
45198;SDS011;30941;46.422;18.772;2023-11-21T07:44:14;20.85;;;12.88;;
45198;SDS011;30941;46.422;18.772;2023-11-21T07:46:40;17.15;;;9.98;;
45198;SDS011;30941;46.422;18.772;2023-11-21T07:49:06;14.55;;;9.07;;
45198;SDS011;30941;46.422;18.772;2023-11-21T07:51:31;16.38;;;10.35;;
45198;SDS011;30941;46.422;18.772;2023-11-21T07:53:56;13.82;;;9.48;;
45198;SDS011;30941;46.422;18.772;2023-11-21T07:56:22;14.38;;;9.30;;
45198;SDS011;30941;46.422;18.772;2023-11-21T07:58:47;20.60;;;9.63;;
45198;SDS011;30941;46.422;18.772;2023-11-21T08:01:12;13.55;;;9.38;;
45198;SDS011;30941;46.422;18.772;2023-11-21T08:03:38;14.57;;;8.40;;
45198;SDS011;30941;46.422;18.772;2023-11-21T08:06:03;10.68;;;7.10;;
45198;SDS011;30941;46.422;18.772;2023-11-21T08:08:30;9.35;;;5.85;;
45198;SDS011;30941;46.422;18.772;2023-11-21T08:10:57;11.52;;;4.65;;
45198;SDS011;30941;46.422;18.772;2023-11-21T08:13:25;8.15;;;4.43;;
45198;SDS011;30941;46.422;18.772;2023-11-21T08:15:54;10.07;;;3.90;;
45198;SDS011;30941;46.422;18.772;2023-11-21T08:18:21;5.82;;;4.13;;
45198;SDS011;30941;46.422;18.772;2023-11-21T08:20:46;7.63;;;3.78;;
45198;SDS011;30941;46.422;18.772;2023-11-21T08:23:13;7.03;;;3.60;;
45198;SDS011;30941;46.422;18.772;2023-11-21T08:25:40;6.35;;;3.28;;
45198;SDS011;30941;46.422;18.772;2023-11-21T08:28:07;5.35;;;3.20;;
45198;SDS011;30941;46.422;18.772;2023-11-21T08:30:32;7.13;;;3.25;;
45198;SDS011;30941;46.422;18.772;2023-11-21T08:32:58;6.90;;;2.95;;
45198;SDS011;30941;46.422;18.772;2023-11-21T08:35:23;9.70;;;3.75;;
45198;SDS011;30941;46.422;18.772;2023-11-21T08:37:52;9.10;;;5.70;;
45198;SDS011;30941;46.422;18.772;2023-11-21T08:40:18;8.40;;;5.22;;
45198;SDS011;30941;46.422;18.772;2023-11-21T08:42:44;11.52;;;5.95;;
45198;SDS011;30941;46.422;18.772;2023-11-21T08:45:10;10.05;;;6.82;;
45198;SDS011;30941;46.422;18.772;2023-11-21T08:47:36;11.90;;;7.65;;
45198;SDS011;30941;46.422;18.772;2023-11-21T08:50:02;12.95;;;9.13;;
45198;SDS011;30941;46.422;18.772;2023-11-21T08:52:27;13.77;;;8.85;;
45198;SDS011;30941;46.422;18.772;2023-11-21T08:54:53;16.15;;;9.82;;
45198;SDS011;30941;46.422;18.772;2023-11-21T08:57:23;18.95;;;10.90;;
45198;SDS011;30941;46.422;18.772;2023-11-21T08:59:49;16.88;;;10.25;;
45198;SDS011;30941;46.422;18.772;2023-11-21T09:02:20;15.23;;;12.13;;
45198;SDS011;30941;46.422;18.772;2023-11-21T09:04:45;15.10;;;10.20;;
45198;SDS011;30941;46.422;18.772;2023-11-21T09:07:10;17.67;;;12.15;;
45198;SDS011;30941;46.422;18.772;2023-11-21T09:09:36;15.38;;;11.57;;
45198;SDS011;30941;46.422;18.772;2023-11-21T09:12:01;15.88;;;10.52;;
45198;SDS011;30941;46.422;18.772;2023-11-21T09:14:27;13.82;;;8.88;;
45198;SDS011;30941;46.422;18.772;2023-11-21T09:16:52;15.27;;;10.23;;
45198;SDS011;30941;46.422;18.772;2023-11-21T09:19:17;14.63;;;10.75;;
45198;SDS011;30941;46.422;18.772;2023-11-21T09:21:43;16.90;;;11.20;;
45198;SDS011;30941;46.422;18.772;2023-11-21T09:24:08;16.00;;;10.65;;
45198;SDS011;30941;46.422;18.772;2023-11-21T09:26:34;21.92;;;12.13;;
45198;SDS011;30941;46.422;18.772;2023-11-21T09:28:59;22.48;;;12.60;;
45198;SDS011;30941;46.422;18.772;2023-11-21T09:31:24;25.38;;;12.40;;
45198;SDS011;30941;46.422;18.772;2023-11-21T09:33:52;18.88;;;9.70;;
45198;SDS011;30941;46.422;18.772;2023-11-21T09:36:17;11.55;;;8.23;;
45198;SDS011;30941;46.422;18.772;2023-11-21T09:38:43;21.92;;;14.02;;
45198;SDS011;30941;46.422;18.772;2023-11-21T09:41:11;19.60;;;11.80;;
45198;SDS011;30941;46.422;18.772;2023-11-21T09:43:45;19.08;;;10.43;;
45198;SDS011;30941;46.422;18.772;2023-11-21T09:46:11;16.88;;;9.13;;
45198;SDS011;30941;46.422;18.772;2023-11-21T09:48:41;13.55;;;8.25;;
45198;SDS011;30941;46.422;18.772;2023-11-21T09:51:07;13.27;;;8.55;;
45198;SDS011;30941;46.422;18.772;2023-11-21T09:53:33;16.58;;;9.23;;
45198;SDS011;30941;46.422;18.772;2023-11-21T09:55:59;16.20;;;9.98;;
45198;SDS011;30941;46.422;18.772;2023-11-21T09:58:27;13.52;;;7.68;;
45198;SDS011;30941;46.422;18.772;2023-11-21T10:00:53;11.90;;;7.20;;
45198;SDS011;30941;46.422;18.772;2023-11-21T10:03:21;11.63;;;7.43;;
45198;SDS011;30941;46.422;18.772;2023-11-21T10:05:46;14.50;;;8.23;;
45198;SDS011;30941;46.422;18.772;2023-11-21T10:08:15;16.10;;;8.65;;
45198;SDS011;30941;46.422;18.772;2023-11-21T10:10:44;11.70;;;6.78;;
45198;SDS011;30941;46.422;18.772;2023-11-21T10:13:14;11.40;;;7.20;;
45198;SDS011;30941;46.422;18.772;2023-11-21T10:15:42;12.23;;;7.25;;
45198;SDS011;30941;46.422;18.772;2023-11-21T10:18:13;11.50;;;5.60;;
45198;SDS011;30941;46.422;18.772;2023-11-21T10:20:40;6.85;;;3.97;;
45198;SDS011;30941;46.422;18.772;2023-11-21T10:23:05;9.13;;;4.40;;
45198;SDS011;30941;46.422;18.772;2023-11-21T10:25:32;7.30;;;3.78;;
45198;SDS011;30941;46.422;18.772;2023-11-21T10:27:59;9.00;;;5.78;;
45198;SDS011;30941;46.422;18.772;2023-11-21T10:30:37;6.95;;;4.85;;
45198;SDS011;30941;46.422;18.772;2023-11-21T10:33:04;9.87;;;5.47;;
45198;SDS011;30941;46.422;18.772;2023-11-21T10:38:12;8.00;;;5.43;;
45198;SDS011;30941;46.422;18.772;2023-11-21T10:40:40;12.13;;;5.75;;
45198;SDS011;30941;46.422;18.772;2023-11-21T10:43:06;7.97;;;4.40;;
45198;SDS011;30941;46.422;18.772;2023-11-21T10:45:34;10.07;;;5.53;;
45198;SDS011;30941;46.422;18.772;2023-11-21T10:47:59;13.50;;;7.13;;
45198;SDS011;30941;46.422;18.772;2023-11-21T10:50:25;12.95;;;5.28;;
45198;SDS011;30941;46.422;18.772;2023-11-21T10:52:51;9.38;;;5.03;;
45198;SDS011;30941;46.422;18.772;2023-11-21T10:55:19;13.30;;;7.10;;
45198;SDS011;30941;46.422;18.772;2023-11-21T10:57:56;15.80;;;8.30;;
45198;SDS011;30941;46.422;18.772;2023-11-21T11:00:23;21.23;;;9.75;;
45198;SDS011;30941;46.422;18.772;2023-11-21T11:02:50;20.70;;;9.32;;
45198;SDS011;30941;46.422;18.772;2023-11-21T11:05:18;19.88;;;9.63;;
45198;SDS011;30941;46.422;18.772;2023-11-21T11:07:44;20.17;;;11.18;;
45198;SDS011;30941;46.422;18.772;2023-11-21T11:10:13;18.35;;;9.45;;
45198;SDS011;30941;46.422;18.772;2023-11-21T11:12:39;12.43;;;7.82;;
45198;SDS011;30941;46.422;18.772;2023-11-21T11:15:06;7.88;;;4.68;;
45198;SDS011;30941;46.422;18.772;2023-11-21T11:17:34;6.05;;;3.28;;
45198;SDS011;30941;46.422;18.772;2023-11-21T11:20:03;7.78;;;3.67;;
45198;SDS011;30941;46.422;18.772;2023-11-21T11:28:04;6.38;;;4.28;;
45198;SDS011;30941;46.422;18.772;2023-11-21T11:38:36;5.95;;;5.05;;
45198;SDS011;30941;46.422;18.772;2023-11-21T11:41:02;7.40;;;4.45;;
45198;SDS011;30941;46.422;18.772;2023-11-21T11:43:29;7.75;;;4.80;;
45198;SDS011;30941;46.422;18.772;2023-11-21T11:46:02;14.02;;;7.78;;
45198;SDS011;30941;46.422;18.772;2023-11-21T11:48:34;11.10;;;7.68;;
45198;SDS011;30941;46.422;18.772;2023-11-21T11:51:01;9.02;;;5.47;;
45198;SDS011;30941;46.422;18.772;2023-11-21T11:53:40;9.32;;;5.82;;
45198;SDS011;30941;46.422;18.772;2023-11-21T11:58:47;7.13;;;4.78;;
45198;SDS011;30941;46.422;18.772;2023-11-21T12:01:13;10.45;;;5.95;;
45198;SDS011;30941;46.422;18.772;2023-11-21T12:03:38;6.07;;;4.38;;
45198;SDS011;30941;46.422;18.772;2023-11-21T12:06:04;9.90;;;4.75;;
45198;SDS011;30941;46.422;18.772;2023-11-21T12:08:31;7.07;;;5.47;;
45198;SDS011;30941;46.422;18.772;2023-11-21T12:10:57;7.40;;;4.40;;
45198;SDS011;30941;46.422;18.772;2023-11-21T12:13:23;5.85;;;4.22;;
45198;SDS011;30941;46.422;18.772;2023-11-21T12:15:49;12.40;;;6.50;;
45198;SDS011;30941;46.422;18.772;2023-11-21T12:18:14;12.07;;;7.85;;
45198;SDS011;30941;46.422;18.772;2023-11-21T12:20:40;16.17;;;8.55;;
45198;SDS011;30941;46.422;18.772;2023-11-21T12:23:07;12.40;;;8.30;;
45198;SDS011;30941;46.422;18.772;2023-11-21T12:25:36;14.93;;;8.00;;
45198;SDS011;30941;46.422;18.772;2023-11-21T12:28:02;10.18;;;6.43;;
45198;SDS011;30941;46.422;18.772;2023-11-21T12:30:31;9.80;;;6.32;;
45198;SDS011;30941;46.422;18.772;2023-11-21T12:32:59;11.68;;;10.48;;
45198;SDS011;30941;46.422;18.772;2023-11-21T12:35:26;9.57;;;8.63;;
45198;SDS011;30941;46.422;18.772;2023-11-21T12:37:53;15.85;;;10.98;;
45198;SDS011;30941;46.422;18.772;2023-11-21T12:40:19;13.18;;;8.77;;
45198;SDS011;30941;46.422;18.772;2023-11-21T12:42:48;13.70;;;7.47;;
45198;SDS011;30941;46.422;18.772;2023-11-21T12:47:46;12.13;;;6.53;;
45198;SDS011;30941;46.422;18.772;2023-11-21T12:50:14;14.98;;;7.22;;
45198;SDS011;30941;46.422;18.772;2023-11-21T12:52:46;13.20;;;7.05;;
45198;SDS011;30941;46.422;18.772;2023-11-21T12:55:18;15.48;;;7.90;;
45198;SDS011;30941;46.422;18.772;2023-11-21T12:57:44;13.48;;;6.38;;
45198;SDS011;30941;46.422;18.772;2023-11-21T13:00:11;10.32;;;6.15;;
45198;SDS011;30941;46.422;18.772;2023-11-21T13:02:42;11.23;;;6.40;;
45198;SDS011;30941;46.422;18.772;2023-11-21T13:05:08;9.63;;;6.43;;
45198;SDS011;30941;46.422;18.772;2023-11-21T13:07:43;12.02;;;6.75;;
45198;SDS011;30941;46.422;18.772;2023-11-21T13:10:12;20.88;;;10.57;;
45198;SDS011;30941;46.422;18.772;2023-11-21T13:12:42;20.77;;;11.05;;
45198;SDS011;30941;46.422;18.772;2023-11-21T13:15:09;23.95;;;12.55;;
45198;SDS011;30941;46.422;18.772;2023-11-21T13:17:35;22.13;;;11.25;;
45198;SDS011;30941;46.422;18.772;2023-11-21T13:20:00;14.10;;;7.65;;
45198;SDS011;30941;46.422;18.772;2023-11-21T13:22:30;13.25;;;5.97;;
45198;SDS011;30941;46.422;18.772;2023-11-21T13:24:58;8.88;;;4.95;;
45198;SDS011;30941;46.422;18.772;2023-11-21T13:27:23;10.38;;;4.70;;
45198;SDS011;30941;46.422;18.772;2023-11-21T13:29:50;4.63;;;2.70;;
45198;SDS011;30941;46.422;18.772;2023-11-21T13:32:16;4.57;;;3.20;;
45198;SDS011;30941;46.422;18.772;2023-11-21T13:34:45;4.18;;;3.15;;
45198;SDS011;30941;46.422;18.772;2023-11-21T13:37:12;5.47;;;3.47;;
45198;SDS011;30941;46.422;18.772;2023-11-21T13:39:38;6.13;;;3.05;;
45198;SDS011;30941;46.422;18.772;2023-11-21T13:42:09;8.70;;;5.53;;
45198;SDS011;30941;46.422;18.772;2023-11-21T13:44:36;25.20;;;8.95;;
45198;SDS011;30941;46.422;18.772;2023-11-21T13:47:03;35.00;;;13.50;;
45198;SDS011;30941;46.422;18.772;2023-11-21T13:49:30;34.72;;;14.40;;
45198;SDS011;30941;46.422;18.772;2023-11-21T13:52:01;28.75;;;12.05;;
45198;SDS011;30941;46.422;18.772;2023-11-21T13:54:27;22.80;;;9.68;;
45198;SDS011;30941;46.422;18.772;2023-11-21T13:56:54;15.10;;;7.55;;
45198;SDS011;30941;46.422;18.772;2023-11-21T13:59:19;10.45;;;6.43;;
45198;SDS011;30941;46.422;18.772;2023-11-21T14:01:50;11.57;;;6.47;;
45198;SDS011;30941;46.422;18.772;2023-11-21T14:04:36;10.75;;;7.20;;
45198;SDS011;30941;46.422;18.772;2023-11-21T14:07:15;7.75;;;6.20;;
45198;SDS011;30941;46.422;18.772;2023-11-21T14:09:51;11.15;;;6.90;;
45198;SDS011;30941;46.422;18.772;2023-11-21T14:12:18;11.45;;;7.03;;
45198;SDS011;30941;46.422;18.772;2023-11-21T14:14:43;12.48;;;6.55;;
45198;SDS011;30941;46.422;18.772;2023-11-21T14:17:10;11.05;;;5.43;;
45198;SDS011;30941;46.422;18.772;2023-11-21T14:19:35;7.38;;;5.18;;
45198;SDS011;30941;46.422;18.772;2023-11-21T14:22:05;8.85;;;5.47;;
45198;SDS011;30941;46.422;18.772;2023-11-21T14:24:30;14.23;;;7.30;;
45198;SDS011;30941;46.422;18.772;2023-11-21T14:26:57;10.88;;;7.18;;
45198;SDS011;30941;46.422;18.772;2023-11-21T14:29:22;17.00;;;8.82;;
45198;SDS011;30941;46.422;18.772;2023-11-21T14:31:48;17.00;;;10.10;;
45198;SDS011;30941;46.422;18.772;2023-11-21T14:34:16;20.50;;;9.43;;